sensor_id;sensor_type;location;lat;lon;timestamp;temperature;humidity
75994;DHT22;64680;53.800;9.988;2024-01-30T00:02:16;2.70;99.90
75994;DHT22;64680;53.800;9.988;2024-01-30T00:04:42;2.70;99.90
75994;DHT22;64680;53.800;9.988;2024-01-30T00:07:07;2.60;99.90
75994;DHT22;64680;53.800;9.988;2024-01-30T00:09:33;2.60;99.90
75994;DHT22;64680;53.800;9.988;2024-01-30T00:11:59;2.60;99.90
75994;DHT22;64680;53.800;9.988;2024-01-30T00:14:25;2.50;99.90
75994;DHT22;64680;53.800;9.988;2024-01-30T00:16:53;2.50;99.90
75994;DHT22;64680;53.800;9.988;2024-01-30T00:19:19;2.50;99.90
75994;DHT22;64680;53.800;9.988;2024-01-30T00:21:44;2.60;99.90
75994;DHT22;64680;53.800;9.988;2024-01-30T00:24:10;2.60;99.90
75994;DHT22;64680;53.800;9.988;2024-01-30T00:26:35;2.60;99.90
75994;DHT22;64680;53.800;9.988;2024-01-30T00:29:01;2.60;99.90
75994;DHT22;64680;53.800;9.988;2024-01-30T00:31:27;2.60;99.90
75994;DHT22;64680;53.800;9.988;2024-01-30T00:33:52;2.60;99.90
75994;DHT22;64680;53.800;9.988;2024-01-30T00:36:18;2.60;99.90
75994;DHT22;64680;53.800;9.988;2024-01-30T00:38:44;2.60;99.90
75994;DHT22;64680;53.800;9.988;2024-01-30T00:41:09;2.60;99.90
75994;DHT22;64680;53.800;9.988;2024-01-30T00:43:35;2.60;99.90
75994;DHT22;64680;53.800;9.988;2024-01-30T00:46:01;2.70;99.90
75994;DHT22;64680;53.800;9.988;2024-01-30T00:48:27;2.60;99.90
75994;DHT22;64680;53.800;9.988;2024-01-30T00:50:52;2.60;99.90
75994;DHT22;64680;53.800;9.988;2024-01-30T00:53:18;2.50;99.90
75994;DHT22;64680;53.800;9.988;2024-01-30T00:55:44;2.50;99.90
75994;DHT22;64680;53.800;9.988;2024-01-30T00:58:09;2.50;99.90
75994;DHT22;64680;53.800;9.988;2024-01-30T01:00:35;2.50;99.90
75994;DHT22;64680;53.800;9.988;2024-01-30T01:03:01;2.50;99.90
75994;DHT22;64680;53.800;9.988;2024-01-30T01:05:27;2.60;99.90
75994;DHT22;64680;53.800;9.988;2024-01-30T01:07:52;2.60;99.90
75994;DHT22;64680;53.800;9.988;2024-01-30T01:10:18;2.60;99.90
75994;DHT22;64680;53.800;9.988;2024-01-30T01:12:44;2.60;99.90
75994;DHT22;64680;53.800;9.988;2024-01-30T01:15:10;2.60;99.90
75994;DHT22;64680;53.800;9.988;2024-01-30T01:17:37;2.60;99.90
75994;DHT22;64680;53.800;9.988;2024-01-30T01:20:03;2.70;99.90
75994;DHT22;64680;53.800;9.988;2024-01-30T01:22:30;2.70;99.90
75994;DHT22;64680;53.800;9.988;2024-01-30T01:24:56;2.70;99.90
75994;DHT22;64680;53.800;9.988;2024-01-30T01:27:22;2.70;99.90
75994;DHT22;64680;53.800;9.988;2024-01-30T01:29:47;2.70;99.90
75994;DHT22;64680;53.800;9.988;2024-01-30T01:32:13;2.70;99.90
75994;DHT22;64680;53.800;9.988;2024-01-30T01:34:38;2.80;99.90
75994;DHT22;64680;53.800;9.988;2024-01-30T01:37:04;2.80;99.90
75994;DHT22;64680;53.800;9.988;2024-01-30T01:39:30;2.80;99.90
75994;DHT22;64680;53.800;9.988;2024-01-30T01:41:55;2.90;99.90
75994;DHT22;64680;53.800;9.988;2024-01-30T01:44:21;2.90;99.90
75994;DHT22;64680;53.800;9.988;2024-01-30T01:46:47;2.90;99.90
75994;DHT22;64680;53.800;9.988;2024-01-30T01:49:13;2.90;99.90
75994;DHT22;64680;53.800;9.988;2024-01-30T01:51:40;2.90;99.90
75994;DHT22;64680;53.800;9.988;2024-01-30T01:54:06;3.00;99.90
75994;DHT22;64680;53.800;9.988;2024-01-30T01:56:33;3.00;99.90
75994;DHT22;64680;53.800;9.988;2024-01-30T01:59:04;3.00;99.90
75994;DHT22;64680;53.800;9.988;2024-01-30T02:01:32;3.00;99.90
75994;DHT22;64680;53.800;9.988;2024-01-30T02:04:01;3.00;99.90
75994;DHT22;64680;53.800;9.988;2024-01-30T02:06:27;3.00;99.90
75994;DHT22;64680;53.800;9.988;2024-01-30T02:08:53;3.00;99.90
75994;DHT22;64680;53.800;9.988;2024-01-30T02:11:20;3.00;99.90
75994;DHT22;64680;53.800;9.988;2024-01-30T02:13:46;3.00;99.90
75994;DHT22;64680;53.800;9.988;2024-01-30T02:16:11;3.10;99.90
75994;DHT22;64680;53.800;9.988;2024-01-30T02:18:37;3.10;99.90
75994;DHT22;64680;53.800;9.988;2024-01-30T02:21:07;3.10;99.90
75994;DHT22;64680;53.800;9.988;2024-01-30T02:23:34;3.00;99.90
75994;DHT22;64680;53.800;9.988;2024-01-30T02:26:00;3.00;99.70
75994;DHT22;64680;53.800;9.988;2024-01-30T02:28:26;3.00;99.20
75994;DHT22;64680;53.800;9.988;2024-01-30T02:30:53;3.00;98.90
75994;DHT22;64680;53.800;9.988;2024-01-30T02:33:18;2.90;98.90
75994;DHT22;64680;53.800;9.988;2024-01-30T02:35:44;2.90;99.20
75994;DHT22;64680;53.800;9.988;2024-01-30T02:38:10;2.90;99.00
75994;DHT22;64680;53.800;9.988;2024-01-30T02:40:35;2.80;99.00
75994;DHT22;64680;53.800;9.988;2024-01-30T02:43:02;2.80;99.20
75994;DHT22;64680;53.800;9.988;2024-01-30T02:45:28;2.80;99.50
75994;DHT22;64680;53.800;9.988;2024-01-30T02:47:53;2.70;99.60
75994;DHT22;64680;53.800;9.988;2024-01-30T02:50:19;2.70;99.80
75994;DHT22;64680;53.800;9.988;2024-01-30T02:52:45;2.60;99.70
75994;DHT22;64680;53.800;9.988;2024-01-30T02:55:10;2.60;99.70
75994;DHT22;64680;53.800;9.988;2024-01-30T02:57:36;2.60;99.90
75994;DHT22;64680;53.800;9.988;2024-01-30T03:00:02;2.60;99.90
75994;DHT22;64680;53.800;9.988;2024-01-30T03:02:29;2.60;99.90
75994;DHT22;64680;53.800;9.988;2024-01-30T03:04:55;2.50;99.90
75994;DHT22;64680;53.800;9.988;2024-01-30T03:07:20;2.50;99.90
75994;DHT22;64680;53.800;9.988;2024-01-30T03:09:46;2.40;99.90
75994;DHT22;64680;53.800;9.988;2024-01-30T03:12:11;2.40;99.90
75994;DHT22;64680;53.800;9.988;2024-01-30T03:14:37;2.40;99.90
75994;DHT22;64680;53.800;9.988;2024-01-30T03:17:03;2.30;99.90
75994;DHT22;64680;53.800;9.988;2024-01-30T03:19:28;2.30;99.90
75994;DHT22;64680;53.800;9.988;2024-01-30T03:21:54;2.30;99.90
75994;DHT22;64680;53.800;9.988;2024-01-30T03:24:19;2.30;99.90
75994;DHT22;64680;53.800;9.988;2024-01-30T03:26:45;2.30;99.90
75994;DHT22;64680;53.800;9.988;2024-01-30T03:29:11;2.30;99.90
75994;DHT22;64680;53.800;9.988;2024-01-30T03:31:36;2.20;99.90
75994;DHT22;64680;53.800;9.988;2024-01-30T03:34:02;2.30;99.90
75994;DHT22;64680;53.800;9.988;2024-01-30T03:36:27;2.30;99.90
75994;DHT22;64680;53.800;9.988;2024-01-30T03:38:53;2.30;99.90
75994;DHT22;64680;53.800;9.988;2024-01-30T03:41:19;2.30;99.90
75994;DHT22;64680;53.800;9.988;2024-01-30T03:43:45;2.30;99.90
75994;DHT22;64680;53.800;9.988;2024-01-30T03:46:12;2.30;99.90
75994;DHT22;64680;53.800;9.988;2024-01-30T03:48:38;2.30;99.90
75994;DHT22;64680;53.800;9.988;2024-01-30T03:51:04;2.20;99.90
75994;DHT22;64680;53.800;9.988;2024-01-30T03:53:30;2.20;99.90
75994;DHT22;64680;53.800;9.988;2024-01-30T03:55:56;2.20;99.90
75994;DHT22;64680;53.800;9.988;2024-01-30T03:58:22;2.30;99.90
75994;DHT22;64680;53.800;9.988;2024-01-30T04:00:47;2.20;99.90
75994;DHT22;64680;53.800;9.988;2024-01-30T04:03:14;2.20;99.90
75994;DHT22;64680;53.800;9.988;2024-01-30T04:05:44;2.10;99.90
75994;DHT22;64680;53.800;9.988;2024-01-30T04:08:10;2.00;99.90
75994;DHT22;64680;53.800;9.988;2024-01-30T04:10:35;2.00;99.90
75994;DHT22;64680;53.800;9.988;2024-01-30T04:13:01;1.90;99.90
75994;DHT22;64680;53.800;9.988;2024-01-30T04:15:27;1.90;99.90
75994;DHT22;64680;53.800;9.988;2024-01-30T04:17:57;1.80;99.90
75994;DHT22;64680;53.800;9.988;2024-01-30T04:20:23;1.80;99.90
75994;DHT22;64680;53.800;9.988;2024-01-30T04:22:49;1.70;99.90
75994;DHT22;64680;53.800;9.988;2024-01-30T04:25:15;1.70;99.90
75994;DHT22;64680;53.800;9.988;2024-01-30T04:27:40;1.60;99.90
75994;DHT22;64680;53.800;9.988;2024-01-30T04:30:06;1.70;99.90
75994;DHT22;64680;53.800;9.988;2024-01-30T04:32:32;1.70;99.90
75994;DHT22;64680;53.800;9.988;2024-01-30T04:34:59;1.70;99.90
75994;DHT22;64680;53.800;9.988;2024-01-30T04:37:24;1.60;99.90
75994;DHT22;64680;53.800;9.988;2024-01-30T04:39:50;1.70;99.90
75994;DHT22;64680;53.800;9.988;2024-01-30T04:42:16;1.70;99.90
75994;DHT22;64680;53.800;9.988;2024-01-30T04:44:42;1.60;99.90
75994;DHT22;64680;53.800;9.988;2024-01-30T04:47:08;1.60;99.90
75994;DHT22;64680;53.800;9.988;2024-01-30T04:49:35;1.60;99.90
75994;DHT22;64680;53.800;9.988;2024-01-30T04:52:01;1.70;99.90
75994;DHT22;64680;53.800;9.988;2024-01-30T04:54:26;1.70;99.90
75994;DHT22;64680;53.800;9.988;2024-01-30T04:56:52;1.70;99.90
75994;DHT22;64680;53.800;9.988;2024-01-30T04:59:18;1.60;99.90
75994;DHT22;64680;53.800;9.988;2024-01-30T05:01:43;1.60;99.90
75994;DHT22;64680;53.800;9.988;2024-01-30T05:04:09;1.70;99.90
75994;DHT22;64680;53.800;9.988;2024-01-30T05:06:35;1.70;99.90
75994;DHT22;64680;53.800;9.988;2024-01-30T05:09:00;1.70;99.90
75994;DHT22;64680;53.800;9.988;2024-01-30T05:11:26;1.70;99.90
75994;DHT22;64680;53.800;9.988;2024-01-30T05:13:51;1.70;99.90
75994;DHT22;64680;53.800;9.988;2024-01-30T05:16:17;1.70;99.90
75994;DHT22;64680;53.800;9.988;2024-01-30T05:18:43;1.70;99.90
75994;DHT22;64680;53.800;9.988;2024-01-30T05:21:10;1.70;99.90
75994;DHT22;64680;53.800;9.988;2024-01-30T05:23:36;1.70;99.90
75994;DHT22;64680;53.800;9.988;2024-01-30T05:26:01;1.70;99.90
75994;DHT22;64680;53.800;9.988;2024-01-30T05:28:30;1.80;99.90
75994;DHT22;64680;53.800;9.988;2024-01-30T05:30:56;1.90;99.90
75994;DHT22;64680;53.800;9.988;2024-01-30T05:33:22;1.90;99.90
75994;DHT22;64680;53.800;9.988;2024-01-30T05:35:47;2.00;99.90
75994;DHT22;64680;53.800;9.988;2024-01-30T05:38:15;2.10;99.90
75994;DHT22;64680;53.800;9.988;2024-01-30T05:40:41;2.20;99.90
75994;DHT22;64680;53.800;9.988;2024-01-30T05:43:06;2.30;99.90
75994;DHT22;64680;53.800;9.988;2024-01-30T05:45:33;2.30;99.90
75994;DHT22;64680;53.800;9.988;2024-01-30T05:47:59;2.30;99.90
75994;DHT22;64680;53.800;9.988;2024-01-30T05:50:25;2.40;99.90
75994;DHT22;64680;53.800;9.988;2024-01-30T05:52:51;2.40;99.90
75994;DHT22;64680;53.800;9.988;2024-01-30T05:55:17;2.50;99.90
75994;DHT22;64680;53.800;9.988;2024-01-30T05:57:42;2.50;99.90
75994;DHT22;64680;53.800;9.988;2024-01-30T06:00:08;2.50;99.90
75994;DHT22;64680;53.800;9.988;2024-01-30T06:02:34;2.50;99.90
75994;DHT22;64680;53.800;9.988;2024-01-30T06:04:59;2.60;99.90
75994;DHT22;64680;53.800;9.988;2024-01-30T06:07:25;2.60;99.90
75994;DHT22;64680;53.800;9.988;2024-01-30T06:09:51;2.60;99.90
75994;DHT22;64680;53.800;9.988;2024-01-30T06:12:16;2.60;99.90
75994;DHT22;64680;53.800;9.988;2024-01-30T06:14:42;2.60;99.90
75994;DHT22;64680;53.800;9.988;2024-01-30T06:17:08;2.60;99.90
75994;DHT22;64680;53.800;9.988;2024-01-30T06:19:34;2.70;99.90
75994;DHT22;64680;53.800;9.988;2024-01-30T06:22:00;2.70;99.90
75994;DHT22;64680;53.800;9.988;2024-01-30T06:24:26;2.70;99.90
75994;DHT22;64680;53.800;9.988;2024-01-30T06:26:53;2.70;99.90
75994;DHT22;64680;53.800;9.988;2024-01-30T06:29:18;2.60;99.90
75994;DHT22;64680;53.800;9.988;2024-01-30T06:31:44;2.60;99.90
75994;DHT22;64680;53.800;9.988;2024-01-30T06:34:10;2.60;99.90
75994;DHT22;64680;53.800;9.988;2024-01-30T06:36:37;2.60;99.90
75994;DHT22;64680;53.800;9.988;2024-01-30T06:39:03;2.50;99.90
75994;DHT22;64680;53.800;9.988;2024-01-30T06:41:29;2.50;99.90
75994;DHT22;64680;53.800;9.988;2024-01-30T06:43:55;2.50;99.90
75994;DHT22;64680;53.800;9.988;2024-01-30T06:46:22;2.40;99.90
75994;DHT22;64680;53.800;9.988;2024-01-30T06:48:48;2.40;99.90
75994;DHT22;64680;53.800;9.988;2024-01-30T06:51:14;2.40;99.90
75994;DHT22;64680;53.800;9.988;2024-01-30T06:53:39;2.40;99.90
75994;DHT22;64680;53.800;9.988;2024-01-30T06:56:05;2.40;99.90
75994;DHT22;64680;53.800;9.988;2024-01-30T06:58:31;2.40;99.90
75994;DHT22;64680;53.800;9.988;2024-01-30T07:00:57;2.40;99.90
75994;DHT22;64680;53.800;9.988;2024-01-30T07:03:23;2.40;99.90
75994;DHT22;64680;53.800;9.988;2024-01-30T07:05:48;2.40;99.90
75994;DHT22;64680;53.800;9.988;2024-01-30T07:08:15;2.40;99.90
75994;DHT22;64680;53.800;9.988;2024-01-30T07:10:45;2.40;99.90
75994;DHT22;64680;53.800;9.988;2024-01-30T07:13:11;2.50;99.90
75994;DHT22;64680;53.800;9.988;2024-01-30T07:15:37;2.50;99.90
75994;DHT22;64680;53.800;9.988;2024-01-30T07:18:03;2.50;99.90
75994;DHT22;64680;53.800;9.988;2024-01-30T07:20:30;2.50;99.90
75994;DHT22;64680;53.800;9.988;2024-01-30T07:22:59;2.50;99.90
75994;DHT22;64680;53.800;9.988;2024-01-30T07:25:25;2.60;99.90
75994;DHT22;64680;53.800;9.988;2024-01-30T07:27:52;2.60;99.90
75994;DHT22;64680;53.800;9.988;2024-01-30T07:30:19;2.60;99.90
75994;DHT22;64680;53.800;9.988;2024-01-30T07:32:45;2.60;99.90
75994;DHT22;64680;53.800;9.988;2024-01-30T07:35:11;2.60;99.90
75994;DHT22;64680;53.800;9.988;2024-01-30T07:37:36;2.70;99.90
75994;DHT22;64680;53.800;9.988;2024-01-30T07:40:02;2.80;99.90
75994;DHT22;64680;53.800;9.988;2024-01-30T07:42:28;2.80;99.90
75994;DHT22;64680;53.800;9.988;2024-01-30T07:44:54;2.90;99.90
75994;DHT22;64680;53.800;9.988;2024-01-30T07:47:19;2.90;99.90
75994;DHT22;64680;53.800;9.988;2024-01-30T07:49:45;2.90;99.90
75994;DHT22;64680;53.800;9.988;2024-01-30T07:52:11;3.00;99.90
75994;DHT22;64680;53.800;9.988;2024-01-30T07:54:42;3.10;99.90
75994;DHT22;64680;53.800;9.988;2024-01-30T07:57:08;3.10;99.90
75994;DHT22;64680;53.800;9.988;2024-01-30T07:59:33;3.10;99.90
75994;DHT22;64680;53.800;9.988;2024-01-30T08:01:59;3.20;99.90
75994;DHT22;64680;53.800;9.988;2024-01-30T08:04:25;3.30;99.90
75994;DHT22;64680;53.800;9.988;2024-01-30T08:06:50;3.30;99.90
75994;DHT22;64680;53.800;9.988;2024-01-30T08:09:16;3.30;99.90
75994;DHT22;64680;53.800;9.988;2024-01-30T08:11:41;3.40;99.90
75994;DHT22;64680;53.800;9.988;2024-01-30T08:14:07;3.50;99.90
75994;DHT22;64680;53.800;9.988;2024-01-30T08:16:32;3.50;99.90
75994;DHT22;64680;53.800;9.988;2024-01-30T08:18:58;3.60;99.90
75994;DHT22;64680;53.800;9.988;2024-01-30T08:21:24;3.60;99.90
75994;DHT22;64680;53.800;9.988;2024-01-30T08:23:49;3.70;99.90
75994;DHT22;64680;53.800;9.988;2024-01-30T08:26:15;3.70;99.90
75994;DHT22;64680;53.800;9.988;2024-01-30T08:28:41;3.80;99.90
75994;DHT22;64680;53.800;9.988;2024-01-30T08:31:06;3.90;99.90
75994;DHT22;64680;53.800;9.988;2024-01-30T08:33:32;3.90;99.90
75994;DHT22;64680;53.800;9.988;2024-01-30T08:35:57;4.00;99.90
75994;DHT22;64680;53.800;9.988;2024-01-30T08:38:23;4.10;99.90
75994;DHT22;64680;53.800;9.988;2024-01-30T08:40:49;4.20;99.90
75994;DHT22;64680;53.800;9.988;2024-01-30T08:43:15;4.30;99.90
75994;DHT22;64680;53.800;9.988;2024-01-30T08:45:40;4.30;99.40
75994;DHT22;64680;53.800;9.988;2024-01-30T08:48:07;4.40;98.70
75994;DHT22;64680;53.800;9.988;2024-01-30T08:50:33;4.40;98.10
75994;DHT22;64680;53.800;9.988;2024-01-30T08:52:58;4.60;97.70
75994;DHT22;64680;53.800;9.988;2024-01-30T08:55:24;4.70;96.60
75994;DHT22;64680;53.800;9.988;2024-01-30T08:57:49;4.70;95.80
75994;DHT22;64680;53.800;9.988;2024-01-30T09:00:15;4.80;95.30
75994;DHT22;64680;53.800;9.988;2024-01-30T09:02:41;4.90;94.00
75994;DHT22;64680;53.800;9.988;2024-01-30T09:05:07;5.10;92.60
75994;DHT22;64680;53.800;9.988;2024-01-30T09:07:33;5.20;91.10
75994;DHT22;64680;53.800;9.988;2024-01-30T09:09:58;5.40;89.80
75994;DHT22;64680;53.800;9.988;2024-01-30T09:12:24;5.50;87.70
75994;DHT22;64680;53.800;9.988;2024-01-30T09:14:49;5.60;86.00
75994;DHT22;64680;53.800;9.988;2024-01-30T09:17:15;5.70;84.70
75994;DHT22;64680;53.800;9.988;2024-01-30T09:19:41;5.90;83.10
75994;DHT22;64680;53.800;9.988;2024-01-30T09:22:06;6.10;80.90
75994;DHT22;64680;53.800;9.988;2024-01-30T09:24:32;6.20;77.80
75994;DHT22;64680;53.800;9.988;2024-01-30T09:26:57;6.40;75.90
75994;DHT22;64680;53.800;9.988;2024-01-30T09:29:23;6.40;72.50
75994;DHT22;64680;53.800;9.988;2024-01-30T09:31:48;6.50;72.60
75994;DHT22;64680;53.800;9.988;2024-01-30T09:34:14;6.60;71.80
75994;DHT22;64680;53.800;9.988;2024-01-30T09:36:40;6.60;70.90
75994;DHT22;64680;53.800;9.988;2024-01-30T09:39:06;6.80;69.50
75994;DHT22;64680;53.800;9.988;2024-01-30T09:41:33;6.80;68.70
75994;DHT22;64680;53.800;9.988;2024-01-30T09:44:01;6.90;67.80
75994;DHT22;64680;53.800;9.988;2024-01-30T09:46:31;7.00;65.60
75994;DHT22;64680;53.800;9.988;2024-01-30T09:48:57;7.00;64.20
75994;DHT22;64680;53.800;9.988;2024-01-30T09:51:23;7.10;63.10
75994;DHT22;64680;53.800;9.988;2024-01-30T09:53:50;7.10;61.60
75994;DHT22;64680;53.800;9.988;2024-01-30T09:56:16;7.20;60.40
75994;DHT22;64680;53.800;9.988;2024-01-30T09:58:42;7.30;57.70
75994;DHT22;64680;53.800;9.988;2024-01-30T10:01:08;7.30;57.20
75994;DHT22;64680;53.800;9.988;2024-01-30T10:03:33;7.30;57.30
75994;DHT22;64680;53.800;9.988;2024-01-30T10:05:59;7.40;55.80
75994;DHT22;64680;53.800;9.988;2024-01-30T10:08:26;7.40;56.40
75994;DHT22;64680;53.800;9.988;2024-01-30T10:10:52;7.50;55.50
75994;DHT22;64680;53.800;9.988;2024-01-30T10:13:18;7.50;55.40
75994;DHT22;64680;53.800;9.988;2024-01-30T10:15:44;7.50;54.90
75994;DHT22;64680;53.800;9.988;2024-01-30T10:18:10;7.60;54.60
75994;DHT22;64680;53.800;9.988;2024-01-30T10:20:37;7.60;54.80
75994;DHT22;64680;53.800;9.988;2024-01-30T10:23:03;7.50;54.50
75994;DHT22;64680;53.800;9.988;2024-01-30T10:25:30;7.60;55.30
75994;DHT22;64680;53.800;9.988;2024-01-30T10:27:56;7.60;55.20
75994;DHT22;64680;53.800;9.988;2024-01-30T10:30:23;7.70;54.20
75994;DHT22;64680;53.800;9.988;2024-01-30T10:32:48;7.80;53.20
75994;DHT22;64680;53.800;9.988;2024-01-30T10:35:15;7.90;51.70
75994;DHT22;64680;53.800;9.988;2024-01-30T10:37:43;7.90;49.80
75994;DHT22;64680;53.800;9.988;2024-01-30T10:40:12;7.80;51.10
75994;DHT22;64680;53.800;9.988;2024-01-30T10:42:44;7.90;50.80
75994;DHT22;64680;53.800;9.988;2024-01-30T10:45:14;8.00;50.20
75994;DHT22;64680;53.800;9.988;2024-01-30T10:47:49;8.00;49.40
75994;DHT22;64680;53.800;9.988;2024-01-30T10:50:15;8.00;49.80
75994;DHT22;64680;53.800;9.988;2024-01-30T10:52:41;8.10;48.90
75994;DHT22;64680;53.800;9.988;2024-01-30T10:55:09;8.10;48.20
75994;DHT22;64680;53.800;9.988;2024-01-30T10:57:36;8.20;49.30
75994;DHT22;64680;53.800;9.988;2024-01-30T11:00:04;8.20;47.60
75994;DHT22;64680;53.800;9.988;2024-01-30T11:02:32;8.30;46.10
75994;DHT22;64680;53.800;9.988;2024-01-30T11:04:59;8.30;45.70
75994;DHT22;64680;53.800;9.988;2024-01-30T11:07:26;8.40;45.80
75994;DHT22;64680;53.800;9.988;2024-01-30T11:09:54;8.50;46.70
75994;DHT22;64680;53.800;9.988;2024-01-30T11:12:29;8.60;44.40
75994;DHT22;64680;53.800;9.988;2024-01-30T11:15:14;8.50;44.70
75994;DHT22;64680;53.800;9.988;2024-01-30T11:20:19;8.50;45.90
75994;DHT22;64680;53.800;9.988;2024-01-30T11:22:45;8.60;45.10
75994;DHT22;64680;53.800;9.988;2024-01-30T11:25:15;8.60;45.00
75994;DHT22;64680;53.800;9.988;2024-01-30T11:27:43;8.60;45.20
75994;DHT22;64680;53.800;9.988;2024-01-30T11:30:09;8.50;46.30
75994;DHT22;64680;53.800;9.988;2024-01-30T11:32:35;8.50;48.10
75994;DHT22;64680;53.800;9.988;2024-01-30T11:35:02;8.60;46.60
75994;DHT22;64680;53.800;9.988;2024-01-30T11:37:28;8.50;46.90
75994;DHT22;64680;53.800;9.988;2024-01-30T11:39:56;8.50;48.70
75994;DHT22;64680;53.800;9.988;2024-01-30T11:42:23;8.50;49.10
75994;DHT22;64680;53.800;9.988;2024-01-30T11:44:53;8.50;49.70
75994;DHT22;64680;53.800;9.988;2024-01-30T11:47:18;8.50;49.30
75994;DHT22;64680;53.800;9.988;2024-01-30T11:49:44;8.60;48.50
75994;DHT22;64680;53.800;9.988;2024-01-30T11:52:10;8.60;48.80
75994;DHT22;64680;53.800;9.988;2024-01-30T11:54:39;8.60;49.70
75994;DHT22;64680;53.800;9.988;2024-01-30T11:57:05;8.60;50.80
75994;DHT22;64680;53.800;9.988;2024-01-30T11:59:30;8.60;49.60
75994;DHT22;64680;53.800;9.988;2024-01-30T12:01:56;8.70;50.10
75994;DHT22;64680;53.800;9.988;2024-01-30T12:04:22;8.60;50.10
75994;DHT22;64680;53.800;9.988;2024-01-30T12:06:51;8.60;50.80
75994;DHT22;64680;53.800;9.988;2024-01-30T12:09:16;8.60;51.00
75994;DHT22;64680;53.800;9.988;2024-01-30T12:11:49;8.60;51.60
75994;DHT22;64680;53.800;9.988;2024-01-30T12:14:17;8.60;50.80
75994;DHT22;64680;53.800;9.988;2024-01-30T12:16:48;8.60;51.70
75994;DHT22;64680;53.800;9.988;2024-01-30T12:19:22;8.60;52.30
75994;DHT22;64680;53.800;9.988;2024-01-30T12:21:47;8.60;53.40
75994;DHT22;64680;53.800;9.988;2024-01-30T12:24:18;8.60;53.70
75994;DHT22;64680;53.800;9.988;2024-01-30T12:26:44;8.60;52.80
75994;DHT22;64680;53.800;9.988;2024-01-30T12:29:09;8.70;53.20
75994;DHT22;64680;53.800;9.988;2024-01-30T12:31:35;8.70;52.10
75994;DHT22;64680;53.800;9.988;2024-01-30T12:34:01;8.60;53.40
75994;DHT22;64680;53.800;9.988;2024-01-30T12:36:28;8.70;53.50
75994;DHT22;64680;53.800;9.988;2024-01-30T12:38:56;8.70;54.20
75994;DHT22;64680;53.800;9.988;2024-01-30T12:41:22;8.70;54.40
75994;DHT22;64680;53.800;9.988;2024-01-30T12:43:53;8.70;54.20
75994;DHT22;64680;53.800;9.988;2024-01-30T12:46:19;8.70;54.40
75994;DHT22;64680;53.800;9.988;2024-01-30T12:48:44;8.80;54.20
75994;DHT22;64680;53.800;9.988;2024-01-30T12:51:10;8.80;54.40
75994;DHT22;64680;53.800;9.988;2024-01-30T12:53:36;8.80;54.20
75994;DHT22;64680;53.800;9.988;2024-01-30T12:56:01;8.80;53.30
75994;DHT22;64680;53.800;9.988;2024-01-30T12:58:27;8.80;54.40
75994;DHT22;64680;53.800;9.988;2024-01-30T13:00:53;8.80;54.60
75994;DHT22;64680;53.800;9.988;2024-01-30T13:03:19;8.80;55.80
75994;DHT22;64680;53.800;9.988;2024-01-30T13:05:45;8.70;55.70
75994;DHT22;64680;53.800;9.988;2024-01-30T13:08:10;8.70;55.70
75994;DHT22;64680;53.800;9.988;2024-01-30T13:10:36;8.70;56.50
75994;DHT22;64680;53.800;9.988;2024-01-30T13:13:01;8.70;56.20
75994;DHT22;64680;53.800;9.988;2024-01-30T13:15:27;8.70;56.70
75994;DHT22;64680;53.800;9.988;2024-01-30T13:17:53;8.60;56.90
75994;DHT22;64680;53.800;9.988;2024-01-30T13:20:19;8.60;58.60
75994;DHT22;64680;53.800;9.988;2024-01-30T13:22:48;8.60;58.50
75994;DHT22;64680;53.800;9.988;2024-01-30T13:25:16;8.60;58.90
75994;DHT22;64680;53.800;9.988;2024-01-30T13:27:42;8.60;59.70
75994;DHT22;64680;53.800;9.988;2024-01-30T13:30:08;8.60;59.50
75994;DHT22;64680;53.800;9.988;2024-01-30T13:32:37;8.70;59.40
75994;DHT22;64680;53.800;9.988;2024-01-30T13:35:03;8.60;60.30
75994;DHT22;64680;53.800;9.988;2024-01-30T13:37:28;8.60;62.50
75994;DHT22;64680;53.800;9.988;2024-01-30T13:39:55;8.50;65.40
75994;DHT22;64680;53.800;9.988;2024-01-30T13:42:21;8.50;67.30
75994;DHT22;64680;53.800;9.988;2024-01-30T13:44:47;8.40;68.90
75994;DHT22;64680;53.800;9.988;2024-01-30T13:47:12;8.50;69.00
75994;DHT22;64680;53.800;9.988;2024-01-30T13:49:38;8.40;70.10
75994;DHT22;64680;53.800;9.988;2024-01-30T13:52:04;8.40;71.00
75994;DHT22;64680;53.800;9.988;2024-01-30T13:54:30;8.40;70.50
75994;DHT22;64680;53.800;9.988;2024-01-30T13:56:56;8.40;70.20
75994;DHT22;64680;53.800;9.988;2024-01-30T13:59:21;8.40;69.80
75994;DHT22;64680;53.800;9.988;2024-01-30T14:01:51;8.40;70.60
75994;DHT22;64680;53.800;9.988;2024-01-30T14:04:17;8.40;69.80
75994;DHT22;64680;53.800;9.988;2024-01-30T14:06:42;8.50;69.60
75994;DHT22;64680;53.800;9.988;2024-01-30T14:09:08;8.50;69.20
75994;DHT22;64680;53.800;9.988;2024-01-30T14:11:34;8.50;68.90
75994;DHT22;64680;53.800;9.988;2024-01-30T14:13:59;8.50;69.70
75994;DHT22;64680;53.800;9.988;2024-01-30T14:16:25;8.60;70.50
75994;DHT22;64680;53.800;9.988;2024-01-30T14:18:50;8.50;70.60
75994;DHT22;64680;53.800;9.988;2024-01-30T14:21:16;8.60;71.00
75994;DHT22;64680;53.800;9.988;2024-01-30T14:23:42;8.50;71.40
75994;DHT22;64680;53.800;9.988;2024-01-30T14:26:07;8.50;71.30
75994;DHT22;64680;53.800;9.988;2024-01-30T14:28:33;8.60;71.30
75994;DHT22;64680;53.800;9.988;2024-01-30T14:30:59;8.60;70.80
75994;DHT22;64680;53.800;9.988;2024-01-30T14:33:25;8.60;71.70
75994;DHT22;64680;53.800;9.988;2024-01-30T14:35:51;8.60;72.60
75994;DHT22;64680;53.800;9.988;2024-01-30T14:38:17;8.60;72.90
75994;DHT22;64680;53.800;9.988;2024-01-30T14:40:42;8.60;72.00
75994;DHT22;64680;53.800;9.988;2024-01-30T14:43:08;8.70;71.00
75994;DHT22;64680;53.800;9.988;2024-01-30T14:45:33;8.70;71.40
75994;DHT22;64680;53.800;9.988;2024-01-30T14:47:59;8.70;72.10
75994;DHT22;64680;53.800;9.988;2024-01-30T14:50:25;8.60;72.30
75994;DHT22;64680;53.800;9.988;2024-01-30T14:52:53;8.70;72.70
75994;DHT22;64680;53.800;9.988;2024-01-30T14:55:19;8.70;72.90
75994;DHT22;64680;53.800;9.988;2024-01-30T14:57:44;8.70;73.60
75994;DHT22;64680;53.800;9.988;2024-01-30T15:00:11;8.70;73.70
75994;DHT22;64680;53.800;9.988;2024-01-30T15:02:37;8.60;74.50
75994;DHT22;64680;53.800;9.988;2024-01-30T15:05:03;8.60;75.30
75994;DHT22;64680;53.800;9.988;2024-01-30T15:07:29;8.70;76.50
75994;DHT22;64680;53.800;9.988;2024-01-30T15:09:54;8.70;76.00
75994;DHT22;64680;53.800;9.988;2024-01-30T15:12:20;8.60;76.00
75994;DHT22;64680;53.800;9.988;2024-01-30T15:14:45;8.70;76.60
75994;DHT22;64680;53.800;9.988;2024-01-30T15:17:19;8.70;75.90
75994;DHT22;64680;53.800;9.988;2024-01-30T15:19:47;8.70;76.10
75994;DHT22;64680;53.800;9.988;2024-01-30T15:22:13;8.70;76.60
75994;DHT22;64680;53.800;9.988;2024-01-30T15:24:38;8.70;77.10
75994;DHT22;64680;53.800;9.988;2024-01-30T15:27:04;8.70;77.40
75994;DHT22;64680;53.800;9.988;2024-01-30T15:29:30;8.70;77.10
75994;DHT22;64680;53.800;9.988;2024-01-30T15:31:55;8.60;78.70
75994;DHT22;64680;53.800;9.988;2024-01-30T15:34:21;8.70;79.00
75994;DHT22;64680;53.800;9.988;2024-01-30T15:36:47;8.70;79.10
75994;DHT22;64680;53.800;9.988;2024-01-30T15:39:14;8.70;80.50
75994;DHT22;64680;53.800;9.988;2024-01-30T15:41:42;8.60;80.70